CMA CGM Aristote — MRPN4 — position and weather

sailwx.info

Track history (hours):
 
Tides and Currents Weather Stations Pressure Air Temp Water Temp Dewpoint Dewpoint Depression Visibility Wind Speed Wind Dir Waves Ship Positions

CMA CGM Aristote

Last reported at 2017-Feb-22 03:33 UTC. Time now 2017-Feb-22 03:54 UTC.
Position N 35°59' W 005°29'.

Length 170 m; draft 8 m.

Type: Ship (hazmat cat A). MMSI: 235054581.

Date/timePositionNaut miles runAvg speedWind from/ knotsBaromVisibWave heightAir tempDewpointWater temp
2017-Feb-22 03:33N 35°59' W 005°29'8 8.2
2017-Feb-22 02:33N 36°01' W 005°20'1111.2
2017-Feb-22 01:34N 36°03' W 005°06'1210.8
2017-Feb-22 00:26N 36°10' W 004°54'  
2017-Feb-13 23:31N 36°49' E 013°43'1211.9
2017-Feb-13 22:32N 36°43' E 013°56'1212.0
2017-Feb-13 21:33N 36°37' E 014°09'1212.3
2017-Feb-13 20:34N 36°31' E 014°22'1211.7
2017-Feb-13 19:33N 36°28' E 014°36'  
Track history (hours):
 
Tides and Currents Weather Stations Pressure Air Temp Water Temp Dewpoint Dewpoint Depression Visibility Wind Speed Wind Dir Waves Ship Positions

CMA CGM Aristote

Last reported at 2017-Feb-22 03:33 UTC. Time now 2017-Feb-22 03:54 UTC.
Position N 35°59' W 005°29'.

Length 170 m; draft 8 m.

Type: Ship (hazmat cat A). MMSI: 235054581.

Date/timePositionNaut miles runAvg speedWind from/ knotsBaromVisibWave heightAir tempDewpointWater temp
2017-Feb-22 03:33N 35°59' W 005°29'8 8.2
2017-Feb-22 02:33N 36°01' W 005°20'1111.2
2017-Feb-22 01:34N 36°03' W 005°06'1210.8
2017-Feb-22 00:26N 36°10' W 004°54'  
2017-Feb-13 23:31N 36°49' E 013°43'1211.9
2017-Feb-13 22:32N 36°43' E 013°56'1212.0
2017-Feb-13 21:33N 36°37' E 014°09'1212.3
2017-Feb-13 20:34N 36°31' E 014°22'1211.7
2017-Feb-13 19:33N 36°28' E 014°36'  

Dump ship's entire track history